createdAt,value
2018-06-10T00:00:51.730Z,71.90
2018-06-10T00:03:20.515Z,72.10
2018-06-10T00:05:49.311Z,71.80
2018-06-10T00:08:18.511Z,71.60
2018-06-10T00:10:47.653Z,71.60
2018-06-10T00:13:16.441Z,71.70
2018-06-10T00:15:45.194Z,71.80
2018-06-10T00:18:13.927Z,72.20
2018-06-10T00:20:43.081Z,72.20
2018-06-10T00:23:12.007Z,73.10
2018-06-10T00:25:41.472Z,72.20
2018-06-10T00:28:10.263Z,71.80
2018-06-10T00:30:39.161Z,71.80
2018-06-10T00:33:08.168Z,73.00
2018-06-10T00:35:37.004Z,72.00
2018-06-10T00:38:05.990Z,72.00
2018-06-10T00:40:35.182Z,72.20
2018-06-10T00:43:04.346Z,72.30
2018-06-10T00:45:33.442Z,72.70
2018-06-10T00:48:02.916Z,73.50
2018-06-10T00:50:31.997Z,74.10
2018-06-10T00:53:00.742Z,74.40
2018-06-10T00:55:29.478Z,74.00
2018-06-10T00:57:58.270Z,74.10
2018-06-10T01:00:27.025Z,74.30
2018-06-10T01:02:55.771Z,74.60
2018-06-10T01:05:24.540Z,74.70
2018-06-10T01:07:53.620Z,74.30
2018-06-10T01:10:22.399Z,75.40
2018-06-10T01:12:51.292Z,75.90
2018-06-10T01:15:20.183Z,76.00
2018-06-10T01:17:49.072Z,76.20
2018-06-10T01:20:18.408Z,75.40
2018-06-10T01:22:47.597Z,75.00
2018-06-10T01:25:16.613Z,75.00
2018-06-10T01:27:45.395Z,75.10
2018-06-10T01:30:14.189Z,76.10
2018-06-10T01:32:42.943Z,76.50
2018-06-10T01:35:11.699Z,76.50
2018-06-10T01:37:40.453Z,76.10
2018-06-10T01:40:09.597Z,76.20
2018-06-10T01:42:38.372Z,77.40
2018-06-10T01:45:07.170Z,77.50
2018-06-10T01:47:35.937Z,76.90
2018-06-10T01:50:05.077Z,77.00
2018-06-10T01:52:33.855Z,77.10
2018-06-10T01:55:02.630Z,77.00
2018-06-10T01:57:31.425Z,77.00
2018-06-10T02:00:00.345Z,77.10
2018-06-10T02:02:29.174Z,77.20
2018-06-10T02:04:58.542Z,77.60
2018-06-10T02:07:27.496Z,77.70
2018-06-10T02:09:56.384Z,78.60
2018-06-10T02:12:25.321Z,78.30
2018-06-10T02:14:54.951Z,78.00
2018-06-10T02:17:24.057Z,78.00
2018-06-10T02:19:52.943Z,77.90
2018-06-10T02:22:21.699Z,78.50
2018-06-10T02:24:50.685Z,78.50
2018-06-10T02:27:19.449Z,78.50
2018-06-10T02:29:48.208Z,78.40
2018-06-10T02:32:17.328Z,78.90
2018-06-10T02:34:46.066Z,78.80
2018-06-10T02:37:15.188Z,79.90
2018-06-10T02:39:44.306Z,79.70
2018-06-10T02:42:13.045Z,79.90
2018-06-10T02:44:42.061Z,80.50
2018-06-10T02:47:10.799Z,81.00
2018-06-10T02:49:39.580Z,80.60
2018-06-10T02:52:08.371Z,81.10
2018-06-10T02:54:37.441Z,81.10
2018-06-10T02:57:06.653Z,81.30
2018-06-10T02:59:35.525Z,81.00
2018-06-10T03:02:04.451Z,80.60
2018-06-10T03:04:33.520Z,80.20
2018-06-10T03:07:02.533Z,80.10
2018-06-10T03:09:31.689Z,80.00
2018-06-10T03:12:00.565Z,80.60
2018-06-10T03:14:29.301Z,79.80
2018-06-10T03:16:58.036Z,80.30
2018-06-10T03:19:26.903Z,81.30
2018-06-10T03:21:55.662Z,81.80
2018-06-10T03:24:24.464Z,80.80
2018-06-10T03:26:53.564Z,81.20
2018-06-10T03:29:23.023Z,80.00
2018-06-10T03:31:51.791Z,79.70
2018-06-10T03:34:20.535Z,79.20
2018-06-10T03:36:49.656Z,77.00
2018-06-10T03:39:18.420Z,73.70
2018-06-10T03:41:47.254Z,70.50
2018-06-10T03:44:16.070Z,67.60
2018-06-10T03:46:44.909Z,64.20
2018-06-10T03:49:13.755Z,64.90
2018-06-10T03:51:42.623Z,66.90
2018-06-10T03:54:11.897Z,68.40
2018-06-10T03:56:40.896Z,66.90
2018-06-10T03:59:10.181Z,67.30
2018-06-10T04:01:39.679Z,69.60
2018-06-10T04:04:08.569Z,70.90
2018-06-10T04:06:37.351Z,72.30
2018-06-10T04:09:07.119Z,74.80
2018-06-10T04:11:36.247Z,73.80
2018-06-10T04:14:05.037Z,73.50
2018-06-10T04:16:33.863Z,75.20
2018-06-10T04:19:02.572Z,76.60
2018-06-10T04:21:31.309Z,75.30
2018-06-10T04:24:00.402Z,73.20
2018-06-10T04:26:29.146Z,70.30
2018-06-10T04:28:57.908Z,63.30
2018-06-10T04:31:27.028Z,57.90
2018-06-10T04:33:56.403Z,60.00
2018-06-10T04:36:25.565Z,63.30
2018-06-10T04:38:54.890Z,64.20
2018-06-10T04:41:23.889Z,66.60
2018-06-10T04:43:52.793Z,68.40
2018-06-10T04:46:21.733Z,68.80
2018-06-10T04:48:50.679Z,68.60
2018-06-10T04:51:19.939Z,68.60
2018-06-10T04:53:55.697Z,64.90
2018-06-10T04:56:24.899Z,61.90
2018-06-10T04:58:54.111Z,61.50
2018-06-10T05:01:22.970Z,64.70
2018-06-10T05:03:52.375Z,54.60
2018-06-10T05:06:22.253Z,48.80
2018-06-10T05:08:52.427Z,47.00
2018-06-10T05:11:22.320Z,49.00
2018-06-10T05:13:51.725Z,45.80
2018-06-10T05:16:21.095Z,43.90
2018-06-10T05:18:50.463Z,43.30
2018-06-10T05:21:19.773Z,44.10
2018-06-10T05:23:49.631Z,46.50
2018-06-10T05:26:19.016Z,48.00
2018-06-10T05:28:48.366Z,52.00
2018-06-10T05:31:18.052Z,54.60
2018-06-10T05:33:47.434Z,55.60
2018-06-10T05:36:16.772Z,56.70
2018-06-10T05:38:46.112Z,58.00
2018-06-10T05:41:15.517Z,58.90
2018-06-10T05:43:44.859Z,60.00
2018-06-10T05:46:14.321Z,59.50
2018-06-10T05:48:44.325Z,60.00
2018-06-10T05:51:13.739Z,61.10
2018-06-10T05:53:43.257Z,60.70
2018-06-10T05:56:12.616Z,61.60
2018-06-10T05:58:42.305Z,61.70
2018-06-10T06:01:11.677Z,60.20
2018-06-10T06:03:41.347Z,57.80
2018-06-10T06:06:11.158Z,52.00
2018-06-10T06:08:40.852Z,49.00
2018-06-10T06:11:10.696Z,47.10
2018-06-10T06:13:40.225Z,46.10
2018-06-10T06:16:09.776Z,43.50
2018-06-10T06:18:39.576Z,45.80
2018-06-10T06:21:09.390Z,44.30
2018-06-10T06:23:38.820Z,42.00
2018-06-10T06:26:08.561Z,40.70
2018-06-10T06:28:38.080Z,43.50
2018-06-10T06:31:07.569Z,45.70
2018-06-10T06:33:37.209Z,48.10
2018-06-10T06:36:07.385Z,47.00
2018-06-10T06:38:36.584Z,44.90
2018-06-10T06:41:05.792Z,42.00
2018-06-10T06:43:35.566Z,41.20
2018-06-10T06:46:05.011Z,40.40
2018-06-10T06:48:34.418Z,39.40
2018-06-10T06:51:04.144Z,38.40
2018-06-10T06:53:33.169Z,38.50
2018-06-10T06:56:02.228Z,38.10
2018-06-10T06:58:31.328Z,38.40
2018-06-10T07:01:00.721Z,38.10
2018-06-10T07:03:29.729Z,37.70
2018-06-10T07:05:59.130Z,37.30
2018-06-10T07:08:28.156Z,37.50
2018-06-10T07:10:57.338Z,37.70
2018-06-10T07:13:26.752Z,37.60
2018-06-10T07:15:56.109Z,38.40
2018-06-10T07:18:25.155Z,39.30
2018-06-10T07:20:54.522Z,39.20
2018-06-10T07:23:23.948Z,37.60
2018-06-10T07:25:52.986Z,38.00
2018-06-10T07:28:22.557Z,38.90
2018-06-10T07:30:51.656Z,38.00
2018-06-10T07:33:20.749Z,37.70
2018-06-10T07:35:49.847Z,37.90
2018-06-10T07:38:18.959Z,38.30
2018-06-10T07:40:48.117Z,38.00
2018-06-10T07:43:17.401Z,39.20
2018-06-10T07:45:46.579Z,37.90
2018-06-10T07:48:16.375Z,38.70
2018-06-10T07:50:45.817Z,40.80
2018-06-10T07:53:15.492Z,41.90
2018-06-10T07:55:44.903Z,42.00
2018-06-10T07:58:14.587Z,41.10
2018-06-10T08:00:43.998Z,42.90
2018-06-10T08:03:13.351Z,40.60
2018-06-10T08:05:42.720Z,41.40
2018-06-10T08:08:12.418Z,41.10
2018-06-10T08:10:41.764Z,40.50
2018-06-10T08:13:11.416Z,41.80
2018-06-10T08:15:40.804Z,43.60
2018-06-10T08:18:10.107Z,43.70
2018-06-10T08:20:39.444Z,43.30
2018-06-10T08:23:08.821Z,42.80
2018-06-10T08:25:38.477Z,43.70
2018-06-10T08:28:07.839Z,44.80
2018-06-10T08:30:37.177Z,46.70
2018-06-10T08:33:06.685Z,46.70
2018-06-10T08:35:36.398Z,47.10
2018-06-10T08:38:05.793Z,47.10
2018-06-10T08:40:35.153Z,47.70
2018-06-10T08:43:04.536Z,46.90
2018-06-10T08:45:34.018Z,46.60
2018-06-10T08:48:04.113Z,47.10
2018-06-10T08:50:33.549Z,47.70
2018-06-10T08:53:03.340Z,47.60
2018-06-10T08:55:32.876Z,47.00
2018-06-10T08:58:02.942Z,46.60
2018-06-10T09:00:32.737Z,47.70
2018-06-10T09:03:02.308Z,47.30
2018-06-10T09:05:33.719Z,45.60
2018-06-10T09:08:03.364Z,45.20
2018-06-10T09:10:37.973Z,45.10
2018-06-10T09:13:07.771Z,45.80
2018-06-10T09:15:37.301Z,45.50
2018-06-10T09:18:07.128Z,44.80
2018-06-10T09:20:36.685Z,45.30
2018-06-10T09:23:06.576Z,45.30
2018-06-10T09:25:36.066Z,45.30
2018-06-10T09:28:05.769Z,45.40
2018-06-10T09:30:35.284Z,44.50
2018-06-10T09:33:05.197Z,45.30
2018-06-10T09:35:34.698Z,45.10
2018-06-10T09:38:04.847Z,44.70
2018-06-10T09:40:34.370Z,44.30
2018-06-10T09:43:04.136Z,45.20
2018-06-10T09:45:33.565Z,45.60
2018-06-10T09:48:03.297Z,44.40
2018-06-10T09:50:32.681Z,44.60
2018-06-10T09:53:02.097Z,44.00
2018-06-10T09:55:32.237Z,44.30
2018-06-10T09:58:01.813Z,44.70
2018-06-10T10:00:31.534Z,45.20
2018-06-10T10:03:01.343Z,45.60
2018-06-10T10:05:30.741Z,46.40
2018-06-10T10:08:00.061Z,46.00
2018-06-10T10:10:29.440Z,46.20
2018-06-10T10:12:59.145Z,44.80
2018-06-10T10:15:28.233Z,44.60
2018-06-10T10:17:57.933Z,45.90
2018-06-10T10:20:27.935Z,45.60
2018-06-10T10:23:00.118Z,47.20
2018-06-10T10:25:29.522Z,48.00
2018-06-10T10:27:59.017Z,48.60
2018-06-10T10:30:28.661Z,49.00
2018-06-10T10:32:58.004Z,49.10
2018-06-10T10:35:28.062Z,48.90
2018-06-10T10:37:58.036Z,48.10
2018-06-10T10:40:27.458Z,48.60
2018-06-10T10:42:56.836Z,48.80
2018-06-10T10:45:26.471Z,48.80
2018-06-10T10:47:55.882Z,47.20
2018-06-10T10:50:25.221Z,48.00
2018-06-10T10:52:54.595Z,47.50
2018-06-10T10:55:24.242Z,48.70
2018-06-10T10:57:53.644Z,49.10
2018-06-10T11:00:23.312Z,49.30
2018-06-10T11:02:53.239Z,49.00
2018-06-10T11:05:22.545Z,48.60
2018-06-10T11:07:51.979Z,48.60
2018-06-10T11:10:21.361Z,49.50
2018-06-10T11:12:50.875Z,49.60
2018-06-10T11:15:20.234Z,49.10
2018-06-10T11:17:49.552Z,49.30
2018-06-10T11:20:18.944Z,49.90
2018-06-10T11:22:48.426Z,49.20
2018-06-10T11:25:17.770Z,49.00
2018-06-10T11:27:47.092Z,48.50
2018-06-10T11:30:16.490Z,46.60
2018-06-10T11:32:45.971Z,46.70
2018-06-10T11:35:15.596Z,45.40
2018-06-10T11:37:45.050Z,45.30
2018-06-10T11:40:14.580Z,46.40
2018-06-10T11:42:44.212Z,46.80
2018-06-10T11:45:13.689Z,46.20
2018-06-10T11:47:43.277Z,46.80
2018-06-10T11:50:12.942Z,47.10
2018-06-10T11:52:42.662Z,47.00
2018-06-10T11:55:12.197Z,47.70
2018-06-10T11:57:41.852Z,47.50
2018-06-10T12:00:11.516Z,48.10
2018-06-10T12:02:41.018Z,45.10
2018-06-10T12:05:10.638Z,44.30
2018-06-10T12:07:40.480Z,44.50
2018-06-10T12:10:09.895Z,44.10
2018-06-10T12:12:39.280Z,44.30
2018-06-10T12:15:08.642Z,44.70
2018-06-10T12:17:38.024Z,44.70
2018-06-10T12:20:08.614Z,45.20
2018-06-10T12:22:38.777Z,45.80
2018-06-10T12:25:08.204Z,46.50
2018-06-10T12:27:37.587Z,47.60
2018-06-10T12:30:07.019Z,47.80
2018-06-10T12:32:36.732Z,48.70
2018-06-10T12:35:06.090Z,49.20
2018-06-10T12:37:35.448Z,50.20
2018-06-10T12:40:04.797Z,50.90
2018-06-10T12:42:34.192Z,51.40
2018-06-10T12:45:03.512Z,52.30
2018-06-10T12:50:02.272Z,53.00
2018-06-10T12:52:31.610Z,53.80
2018-06-10T12:55:01.272Z,54.90
2018-06-10T12:57:30.619Z,54.90
2018-06-10T13:00:00.342Z,55.30
2018-06-10T13:02:30.062Z,54.40
2018-06-10T13:04:59.533Z,53.20
2018-06-10T13:07:29.691Z,51.90
2018-06-10T13:09:59.404Z,51.10
2018-06-10T13:12:29.217Z,49.60
2018-06-10T13:14:58.992Z,49.60
2018-06-10T13:17:28.486Z,49.90
2018-06-10T13:19:58.690Z,50.30
2018-06-10T13:24:57.336Z,50.70
2018-06-10T13:27:27.273Z,49.50
2018-06-10T13:29:56.863Z,53.20
2018-06-10T13:32:26.402Z,54.00
2018-06-10T13:37:25.565Z,57.10
2018-06-10T13:39:54.986Z,57.20
2018-06-10T13:42:24.343Z,55.30
2018-06-10T13:47:23.126Z,55.50
2018-06-10T13:49:52.490Z,55.00
2018-06-10T13:52:22.039Z,55.40
2018-06-10T13:54:51.690Z,54.40
2018-06-10T13:57:21.144Z,54.90
2018-06-10T13:59:50.873Z,55.80
2018-06-10T14:02:20.305Z,56.40
2018-06-10T14:04:49.966Z,57.30
2018-06-10T14:07:19.441Z,58.80
2018-06-10T14:09:48.867Z,59.70
2018-06-10T14:12:18.642Z,60.40
2018-06-10T14:14:48.029Z,60.60
2018-06-10T14:17:17.446Z,60.20
2018-06-10T14:19:46.870Z,60.50
2018-06-10T14:22:16.249Z,60.10
2018-06-10T14:24:45.674Z,60.40
2018-06-10T14:27:15.144Z,60.50
2018-06-10T14:29:44.823Z,60.20
2018-06-10T14:32:14.400Z,60.50
2018-06-10T14:34:44.091Z,59.80
2018-06-10T14:37:13.460Z,59.40
2018-06-10T14:39:43.289Z,59.50
2018-06-10T14:42:12.726Z,59.40
2018-06-10T14:44:42.638Z,59.50
2018-06-10T14:47:12.112Z,59.60
2018-06-10T14:49:41.574Z,60.20
2018-06-10T14:52:11.116Z,59.10
2018-06-10T14:54:40.657Z,58.90
2018-06-10T14:57:10.168Z,57.90
2018-06-10T14:59:39.944Z,58.90
2018-06-10T15:02:09.278Z,58.40
2018-06-10T15:04:38.721Z,58.70
2018-06-10T15:07:08.141Z,58.90
2018-06-10T15:09:37.864Z,59.80
2018-06-10T15:12:06.755Z,67.40
2018-06-10T15:17:04.098Z,74.30
2018-06-10T15:19:32.884Z,74.50
2018-06-10T15:22:01.725Z,74.10
2018-06-10T15:24:30.888Z,74.40
2018-06-10T15:26:59.689Z,74.70
2018-06-10T15:29:28.577Z,73.30
2018-06-10T15:31:57.470Z,75.60
2018-06-10T15:34:26.992Z,73.30
2018-06-10T15:36:55.868Z,72.40
2018-06-10T15:39:25.173Z,73.40
2018-06-10T15:41:54.127Z,73.10
2018-06-10T15:44:23.644Z,72.80
2018-06-10T15:46:52.617Z,71.70
2018-06-10T15:49:21.690Z,72.80
2018-06-10T15:51:50.607Z,74.00
2018-06-10T15:54:19.606Z,75.00
2018-06-10T15:56:48.557Z,74.00
2018-06-10T15:59:17.381Z,73.00
2018-06-10T16:01:46.816Z,73.80
2018-06-10T16:04:15.613Z,73.10
2018-06-10T16:06:44.496Z,72.60
2018-06-10T16:09:13.386Z,73.50
2018-06-10T16:11:42.254Z,73.40
2018-06-10T16:14:11.053Z,72.50
2018-06-10T16:16:39.922Z,73.70
2018-06-10T16:19:09.108Z,74.10
2018-06-10T16:26:35.146Z,74.70
2018-06-10T16:29:04.145Z,73.40
2018-06-10T16:31:33.766Z,73.80
2018-06-10T16:34:02.727Z,71.90
2018-06-10T16:36:31.825Z,73.40
2018-06-10T16:39:00.784Z,72.60
2018-06-10T16:43:58.963Z,72.70
2018-06-10T16:46:28.064Z,76.00
2018-06-10T16:48:57.530Z,76.20
2018-06-10T16:51:26.468Z,75.70
2018-06-10T16:53:55.452Z,75.10
2018-06-10T16:56:24.668Z,75.50
2018-06-10T16:58:53.577Z,74.40
2018-06-10T17:01:22.395Z,73.30
2018-06-10T17:03:51.521Z,73.30
2018-06-10T17:06:20.344Z,75.10
2018-06-10T17:08:49.255Z,75.30
2018-06-10T17:11:18.444Z,74.20
2018-06-10T17:13:47.606Z,76.20
2018-06-10T17:16:17.513Z,77.40
2018-06-10T17:18:46.508Z,76.50
2018-06-10T17:21:15.635Z,75.70
2018-06-10T17:23:44.568Z,75.50
2018-06-10T17:26:13.915Z,79.20
2018-06-10T17:28:43.197Z,82.30
2018-06-10T17:31:12.503Z,81.60
2018-06-10T17:33:42.475Z,82.20
2018-06-10T17:36:11.435Z,83.30
2018-06-10T17:38:42.166Z,80.70
2018-06-10T17:41:11.201Z,78.70
2018-06-10T17:43:40.140Z,77.50
2018-06-10T17:46:09.218Z,79.60
2018-06-10T17:48:38.230Z,81.00
2018-06-10T17:51:07.570Z,81.50
2018-06-10T17:53:36.920Z,79.90
2018-06-10T17:56:06.499Z,81.20
2018-06-10T17:58:35.802Z,81.00
2018-06-10T18:01:04.685Z,79.60
2018-06-10T18:03:33.575Z,79.50
2018-06-10T18:06:02.953Z,79.00
2018-06-10T18:08:31.775Z,79.10
2018-06-10T18:11:00.718Z,78.00
2018-06-10T18:13:29.722Z,77.40
2018-06-10T18:15:58.961Z,77.10
2018-06-10T18:18:28.211Z,77.50
2018-06-10T18:20:57.148Z,77.80
2018-06-10T18:23:26.345Z,78.90
2018-06-10T18:25:55.246Z,78.00
2018-06-10T18:28:24.557Z,78.40
2018-06-10T18:30:53.453Z,78.00
2018-06-10T18:33:22.488Z,77.70
2018-06-10T18:35:51.603Z,78.10
2018-06-10T18:38:20.794Z,77.40
2018-06-10T18:40:49.847Z,77.90
2018-06-10T18:43:19.482Z,78.90
2018-06-10T18:45:48.493Z,78.20
2018-06-10T18:48:17.489Z,78.50
2018-06-10T18:50:46.492Z,76.80
2018-06-10T18:53:15.555Z,77.90
2018-06-10T18:55:45.132Z,78.00
2018-06-10T18:58:14.246Z,77.50
2018-06-10T19:00:43.278Z,76.50
2018-06-10T19:03:12.277Z,76.00
2018-06-10T19:05:42.331Z,76.20
2018-06-10T19:08:11.262Z,76.30
2018-06-10T19:10:40.674Z,76.80
2018-06-10T19:13:09.711Z,77.70
2018-06-10T19:15:38.648Z,77.20
2018-06-10T19:18:08.066Z,77.30
2018-06-10T19:20:37.069Z,77.30
2018-06-10T19:23:06.029Z,76.80
2018-06-10T19:25:35.396Z,77.30
2018-06-10T19:28:05.009Z,77.70
2018-06-10T19:30:34.017Z,78.70
2018-06-10T19:33:03.816Z,79.70
2018-06-10T19:35:32.998Z,81.30
2018-06-10T19:38:02.250Z,83.10
2018-06-10T19:40:31.705Z,82.70
2018-06-10T19:43:01.015Z,82.30
2018-06-10T19:45:30.214Z,83.80
2018-06-10T19:47:59.248Z,83.30
2018-06-10T19:50:28.336Z,82.20
2018-06-10T19:52:57.751Z,82.20
2018-06-10T19:55:27.209Z,83.70
2018-06-10T19:57:56.343Z,83.70
2018-06-10T20:00:25.926Z,84.30
2018-06-10T20:02:55.896Z,86.10
2018-06-10T20:07:54.441Z,86.50
2018-06-10T20:10:23.460Z,85.20
2018-06-10T20:12:52.724Z,84.50
2018-06-10T20:15:21.814Z,87.00
2018-06-10T20:17:50.729Z,88.00
2018-06-10T20:22:48.443Z,90.00
2018-06-10T20:25:17.471Z,90.80
2018-06-10T20:27:46.413Z,90.10
2018-06-10T20:30:15.463Z,88.90
2018-06-10T20:32:44.497Z,88.30
2018-06-10T20:35:13.685Z,88.00
2018-06-10T20:37:42.619Z,87.60
2018-06-10T20:40:11.827Z,86.50
2018-06-10T20:42:40.819Z,86.20
2018-06-10T20:47:39.492Z,86.50
2018-06-10T20:50:09.388Z,85.70
2018-06-10T20:52:38.580Z,86.10
2018-06-10T20:55:07.757Z,85.60
2018-06-10T20:57:37.845Z,85.70
2018-06-10T21:00:07.032Z,85.50
2018-06-10T21:02:36.256Z,85.80
2018-06-10T21:05:05.184Z,85.60
2018-06-10T21:07:34.152Z,85.50
2018-06-10T21:10:03.235Z,85.80
2018-06-10T21:12:32.076Z,85.50
2018-06-10T21:15:01.069Z,84.90
2018-06-10T21:17:29.934Z,85.20
2018-06-10T21:22:27.277Z,85.30
2018-06-10T21:24:56.201Z,85.60
2018-06-10T21:27:25.147Z,86.30
2018-06-10T21:29:53.969Z,86.60
2018-06-10T21:32:22.972Z,86.00
2018-06-10T21:34:51.881Z,86.00
2018-06-10T21:37:20.827Z,86.50
2018-06-10T21:39:49.784Z,85.80
2018-06-10T21:42:18.674Z,86.00
2018-06-10T21:44:47.672Z,85.80
2018-06-10T21:47:16.704Z,85.70
2018-06-10T21:49:45.764Z,86.20
2018-06-10T21:52:15.631Z,85.80
2018-06-10T21:54:44.605Z,85.80
2018-06-10T21:57:13.424Z,85.90
2018-06-10T21:59:42.206Z,85.90
2018-06-10T22:02:11.290Z,85.80
2018-06-10T22:04:40.082Z,85.20
2018-06-10T22:07:09.565Z,84.60
2018-06-10T22:09:38.658Z,84.90
2018-06-10T22:12:07.566Z,84.50
2018-06-10T22:14:36.339Z,83.60
2018-06-10T22:17:05.506Z,84.00
2018-06-10T22:19:34.282Z,84.00
2018-06-10T22:22:03.447Z,84.80
2018-06-10T22:24:32.561Z,82.90
2018-06-10T22:27:01.434Z,82.60
2018-06-10T22:29:30.322Z,81.80
2018-06-10T22:31:59.407Z,82.80
2018-06-10T22:36:57.059Z,82.50
2018-06-10T22:39:26.137Z,81.70
2018-06-10T22:41:55.137Z,80.60
2018-06-10T22:44:24.160Z,81.60
2018-06-10T22:46:53.644Z,81.50
2018-06-10T22:49:22.433Z,81.70
2018-06-10T22:51:51.336Z,81.80
2018-06-10T22:54:45.540Z,81.60
2018-06-10T22:57:14.712Z,82.70
2018-06-10T22:59:43.773Z,82.20
2018-06-10T23:02:12.885Z,82.00
2018-06-10T23:04:41.643Z,82.70
2018-06-10T23:07:10.509Z,82.20
2018-06-10T23:09:40.045Z,82.50
2018-06-10T23:12:08.904Z,82.70
2018-06-10T23:14:38.049Z,82.50
2018-06-10T23:17:07.752Z,83.30
2018-06-10T23:19:40.277Z,84.10
2018-06-10T23:22:17.694Z,84.20
2018-06-10T23:24:55.259Z,84.10
2018-06-10T23:27:25.333Z,84.40
2018-06-10T23:29:54.107Z,85.00
2018-06-10T23:32:24.279Z,85.60
2018-06-10T23:34:57.905Z,86.10
2018-06-10T23:37:26.634Z,85.60
2018-06-10T23:39:56.659Z,85.30
2018-06-10T23:42:26.232Z,85.60
2018-06-10T23:44:55.002Z,85.50
2018-06-10T23:47:23.840Z,85.20
2018-06-10T23:52:21.364Z,84.90
2018-06-10T23:54:50.447Z,85.60
2018-06-10T23:57:25.545Z,85.20
2018-06-10T23:59:54.992Z,85.00
